Time;durP1;ratioP1;P1;durP2;ratioP2;P2;SDS_P1;SDS_P2;PMS_P1;PMS_P2;Temp;Humidity;BMP_temperature;BMP_pressure;BME280_temperature;BME280_humidity;BME280_pressure;Samples;Min_cycle;Max_cycle;Signal;HPM_P1;HPM_P2
2021/10/11 00:00:37;;;;;;;147.88;50.70;;;;;;;2.89;69.68;101070.56;5114366;27;20081;-74
2021/10/11 00:03:03;;;;;;;119.15;45.45;;;;;;;2.86;69.23;101074.13;5113904;28;20420;-76
2021/10/11 00:05:29;;;;;;;104.40;39.95;;;;;;;2.85;68.43;101076.78;5113485;27;20144;-78
2021/10/11 00:07:55;;;;;;;118.40;43.35;;;;;;;2.82;69.27;101076.84;5113978;28;20062;-75
2021/10/11 00:10:24;;;;;;;90.45;37.40;;;;;;;2.80;69.08;101073.41;5120592;27;20039;-75
2021/10/11 00:12:51;;;;;;;105.72;40.03;;;;;;;2.78;69.60;101069.97;5134850;27;20138;-76
2021/10/11 00:15:19;;;;;;;87.88;31.90;;;;;;;2.72;69.09;101076.19;5115867;27;20130;-79
2021/10/11 00:17:45;;;;;;;83.13;31.83;;;;;;;2.68;68.51;101072.78;5117796;27;20553;-75
2021/10/11 00:20:12;;;;;;;84.72;33.00;;;;;;;2.67;68.46;101068.44;5133363;27;20445;-78
2021/10/11 00:22:56;;;;;;;82.43;32.83;;;;;;;2.67;68.46;101067.59;5134248;27;20045;-76
2021/10/11 00:25:22;;;;;;;85.63;36.72;;;;;;;2.66;68.38;101061.50;5129757;27;20048;-77
2021/10/11 00:27:47;;;;;;;92.28;36.22;;;;;;;2.62;68.29;101059.88;5115034;27;20045;-77
2021/10/11 00:30:13;;;;;;;93.45;37.60;;;;;;;2.59;68.97;101059.91;5132536;27;20088;-77
2021/10/11 00:32:41;;;;;;;104.38;41.75;;;;;;;2.55;70.39;101058.28;5119109;27;20047;-75
2021/10/11 00:35:07;;;;;;;107.18;42.10;;;;;;;2.49;70.61;101059.25;5127885;27;20488;-79
2021/10/11 00:37:33;;;;;;;105.25;41.67;;;;;;;2.43;70.97;101055.03;5134119;27;20049;-75
2021/10/11 00:39:59;;;;;;;105.93;42.30;;;;;;;2.40;71.86;101054.22;5116111;27;20527;-75
2021/10/11 00:42:24;;;;;;;103.35;41.58;;;;;;;2.34;71.84;101051.75;5113646;28;20075;-75
2021/10/11 00:45:15;;;;;;;83.95;35.72;;;;;;;2.23;70.91;101060.66;5114235;27;20047;-78
2021/10/11 00:48:06;;;;;;;81.80;34.17;;;;;;;2.23;69.87;101059.78;5113275;28;20129;-75
2021/10/11 00:50:32;;;;;;;85.93;35.42;;;;;;;2.22;69.88;101050.25;5113485;28;20047;-78
2021/10/11 00:52:58;;;;;;;87.25;34.63;;;;;;;2.15;69.54;101048.66;5113328;27;20137;-75
2021/10/11 00:55:25;;;;;;;83.32;32.80;;;;;;;2.07;70.46;101047.06;5114382;27;20637;-76
2021/10/11 00:57:50;;;;;;;70.95;29.90;;;;;;;2.01;70.02;101047.16;5112050;28;20438;-76
2021/10/11 01:00:17;;;;;;;81.82;32.80;;;;;;;2.02;70.63;101048.00;5112938;27;20047;-76
2021/10/11 01:02:42;;;;;;;84.45;33.83;;;;;;;2.07;69.94;101041.84;5113241;28;20496;-74
2021/10/11 01:05:09;;;;;;;97.03;36.20;;;;;;;2.09;69.84;101040.06;5113728;27;20061;-76
2021/10/11 01:07:35;;;;;;;103.82;41.33;;;;;;;2.08;70.78;101043.56;5112814;28;20039;-75
2021/10/11 01:10:20;;;;;;;113.18;40.65;;;;;;;2.01;71.51;101048.94;5111286;28;20510;-77
2021/10/11 01:12:45;;;;;;;95.72;39.58;;;;;;;1.99;71.79;101051.53;5113048;27;20063;-80
2021/10/11 01:15:11;;;;;;;96.28;40.72;;;;;;;1.98;72.27;101042.03;5114041;27;20039;-78
2021/10/11 01:17:37;;;;;;;100.72;39.33;;;;;;;1.98;71.83;101042.03;5111695;28;20055;-80
2021/10/11 01:20:04;;;;;;;98.50;38.22;;;;;;;1.93;72.45;101043.84;5113869;27;20035;-75
2021/10/11 01:22:39;;;;;;;90.25;38.38;;;;;;;1.87;72.12;101047.44;5112851;27;20039;-75
2021/10/11 01:25:07;;;;;;;93.80;36.20;;;;;;;1.82;72.10;101041.44;5112572;28;20043;-76
2021/10/11 01:27:33;;;;;;;106.90;39.22;;;;;;;1.80;72.84;101047.59;5111790;27;20048;-74
2021/10/11 01:29:59;;;;;;;94.07;37.85;;;;;;;1.77;72.40;101044.13;5111686;28;20046;-75
2021/10/11 01:32:25;;;;;;;107.10;40.40;;;;;;;1.75;72.98;101039.84;5118556;27;20047;-74
2021/10/11 01:34:51;;;;;;;87.32;34.22;;;;;;;1.71;73.14;101044.25;5131060;27;20518;-75
2021/10/11 01:37:17;;;;;;;71.78;27.75;;;;;;;1.64;72.77;101032.19;5131449;27;20054;-75
2021/10/11 01:39:43;;;;;;;73.78;27.02;;;;;;;1.53;72.11;101039.34;5132811;27;20491;-77
2021/10/11 01:42:09;;;;;;;74.97;28.20;;;;;;;1.47;72.76;101039.47;5131440;27;20081;-77
2021/10/11 01:44:35;;;;;;;79.53;29.52;;;;;;;1.48;72.25;101030.75;5112122;28;20047;-78
2021/10/11 01:47:02;;;;;;;68.82;26.33;;;;;;;1.47;72.48;101039.47;5124048;27;20039;-75
2021/10/11 01:49:27;;;;;;;65.97;27.33;;;;;;;1.47;71.92;101029.91;5132985;27;20037;-77
2021/10/11 01:51:53;;;;;;;62.83;26.73;;;;;;;1.50;71.89;101029.00;5130861;27;20437;-73
2021/10/11 01:54:19;;;;;;;68.70;28.02;;;;;;;1.53;71.65;101023.72;5130835;27;20555;-78
2021/10/11 01:56:45;;;;;;;77.07;30.60;;;;;;;1.53;71.65;101024.56;5131410;27;20066;-77
2021/10/11 01:59:10;;;;;;;80.53;29.13;;;;;;;1.54;71.20;101020.22;5105478;28;20035;-75
2021/10/11 02:01:36;;;;;;;70.95;29.98;;;;;;;1.48;71.61;101015.13;5112291;28;20412;-75
2021/10/11 02:04:02;;;;;;;70.70;28.52;;;;;;;1.48;71.90;101022.94;5111964;28;20049;-76
2021/10/11 02:06:28;;;;;;;80.28;27.63;;;;;;;1.47;72.00;101013.41;5116489;27;20050;-75
2021/10/11 02:08:54;;;;;;;72.82;30.35;;;;;;;1.45;71.95;101022.09;5132691;27;20035;-76
2021/10/11 02:11:20;;;;;;;71.88;29.20;;;;;;;1.45;72.45;101022.09;5115299;27;20459;-77
2021/10/11 02:13:46;;;;;;;68.97;28.23;;;;;;;1.42;72.40;101016.94;5123480;27;20138;-76
2021/10/11 02:16:12;;;;;;;79.00;27.90;;;;;;;1.42;72.28;101022.16;5125947;27;20138;-74
2021/10/11 02:18:38;;;;;;;83.38;28.70;;;;;;;1.36;72.11;101018.78;5102163;27;20046;-75
2021/10/11 02:21:03;;;;;;;81.32;28.60;;;;;;;1.28;72.25;101013.72;5111280;27;20043;-78
2021/10/11 02:23:29;;;;;;;84.78;30.23;;;;;;;1.23;71.95;101020.75;5114629;27;20444;-76
2021/10/11 02:25:55;;;;;;;85.53;32.25;;;;;;;1.19;71.89;101013.88;5115270;27;20032;-75
2021/10/11 02:28:21;;;;;;;104.50;36.03;;;;;;;1.15;72.58;101010.47;5110675;28;20040;-79
2021/10/11 02:30:51;;;;;;;106.28;38.00;;;;;;;1.12;72.19;101019.19;5111058;28;20042;-75
2021/10/11 02:33:18;;;;;;;82.82;31.02;;;;;;;1.11;72.56;101016.63;5112806;28;20054;-78
2021/10/11 02:35:43;;;;;;;73.72;27.27;;;;;;;1.05;72.38;101017.56;5115541;27;20039;-76
2021/10/11 02:38:09;;;;;;;80.65;26.52;;;;;;;0.99;72.37;101015.03;5131612;28;20088;-76
2021/10/11 02:40:36;;;;;;;71.93;26.98;;;;;;;0.96;72.55;101018.56;5121707;27;20043;-75
2021/10/11 02:43:04;;;;;;;71.00;26.00;;;;;;;0.99;72.24;101011.59;5127957;27;20548;-77
2021/10/11 02:45:29;;;;;;;75.35;29.02;;;;;;;1.04;73.05;101013.22;5133224;27;20131;-76
2021/10/11 02:47:55;;;;;;;81.18;30.23;;;;;;;1.10;72.48;100996.66;5132860;27;20433;-77
2021/10/11 02:50:21;;;;;;;107.70;38.63;;;;;;;1.12;72.51;100997.47;5116391;27;20488;-77
2021/10/11 02:52:47;;;;;;;70.10;25.83;;;;;;;1.08;72.68;101001.00;5115642;27;20062;-78
2021/10/11 02:55:14;;;;;;;74.00;29.88;;;;;;;1.08;72.89;101007.06;5118637;27;20039;-79
2021/10/11 02:57:41;;;;;;;72.72;27.70;;;;;;;1.12;72.42;100997.47;5134060;27;20496;-78
2021/10/11 03:00:07;;;;;;;68.05;24.48;;;;;;;1.12;71.99;100993.13;5122864;27;20145;-78
2021/10/11 03:02:33;;;;;;;73.00;26.60;;;;;;;1.06;72.31;100993.22;5126621;27;20134;-79
2021/10/11 03:04:59;;;;;;;73.93;23.95;;;;;;;1.05;72.19;100991.50;5117319;27;20118;-79
2021/10/11 03:07:25;;;;;;;74.40;27.15;;;;;;;1.08;72.27;100986.22;5115561;27;20048;-80
2021/10/11 03:09:51;;;;;;;85.70;31.95;;;;;;;1.10;72.52;100989.69;5121646;27;20035;-81
2021/10/11 03:12:17;;;;;;;75.88;28.35;;;;;;;1.11;72.47;100990.56;5124549;27;20051;-82
2021/10/11 03:14:42;;;;;;;73.68;28.45;;;;;;;1.08;72.57;100983.63;5099081;27;20536;-77
2021/10/11 03:17:08;;;;;;;71.72;29.05;;;;;;;1.07;72.89;100989.75;5132613;27;20131;-75
2021/10/11 03:19:34;;;;;;;72.72;27.90;;;;;;;1.02;73.13;100981.13;5123353;27;20150;-84
2021/10/11 03:22:00;;;;;;;72.32;28.33;;;;;;;1.00;72.77;100992.44;5089483;27;20035;-76
2021/10/11 03:24:26;;;;;;;77.13;29.27;;;;;;;0.97;72.88;100980.34;5126012;27;20039;-80
2021/10/11 03:26:52;;;;;;;75.07;29.92;;;;;;;0.95;73.41;100985.59;5123278;27;20039;-79
2021/10/11 03:29:18;;;;;;;73.13;28.70;;;;;;;0.95;73.52;100984.72;5117654;27;20046;-83
2021/10/11 03:31:44;;;;;;;85.88;30.40;;;;;;;0.92;72.99;100985.66;5115591;27;20492;-82
2021/10/11 03:34:11;;;;;;;83.75;32.97;;;;;;;0.91;73.09;100989.13;5116773;27;20035;-79
2021/10/11 03:36:41;;;;;;;79.32;30.10;;;;;;;0.88;73.34;100977.91;5116595;27;20063;-77
2021/10/11 03:39:07;;;;;;;78.75;29.15;;;;;;;0.90;73.60;100983.94;5117825;27;20042;-80
2021/10/11 03:41:34;;;;;;;63.42;23.85;;;;;;;0.87;73.36;100978.78;5114554;27;20488;-80
2021/10/11 03:44:03;;;;;;;61.45;25.52;;;;;;;0.88;72.76;100973.53;5117802;27;20039;-77
2021/10/11 03:46:30;;;;;;;69.20;22.73;;;;;;;0.87;72.65;100977.00;5123859;27;20407;-79
2021/10/11 03:48:56;;;;;;;61.17;24.67;;;;;;;0.83;72.56;100980.56;5119096;27;20065;-76
2021/10/11 03:51:22;;;;;;;71.43;25.13;;;;;;;0.76;72.45;100981.53;5114416;27;20046;-79
2021/10/11 03:53:48;;;;;;;60.92;23.30;;;;;;;0.83;72.32;100983.16;5116380;27;20048;-76
2021/10/11 03:56:14;;;;;;;68.70;26.27;;;;;;;0.86;72.28;100974.44;5087458;28;20042;-78
2021/10/11 03:58:40;;;;;;;67.40;23.35;;;;;;;0.85;72.14;100980.53;5126024;27;20092;-78
2021/10/11 04:01:06;;;;;;;66.05;23.35;;;;;;;0.97;71.80;100972.53;5122960;27;20046;-80
